createdAt,value
2022-08-07T00:00:39.743Z,23.70
2022-08-07T00:03:08.687Z,23.70
2022-08-07T00:05:37.042Z,23.70
2022-08-07T00:08:10.884Z,23.70
2022-08-07T00:10:48.367Z,23.70
2022-08-07T00:13:30.835Z,23.70
2022-08-07T00:16:00.278Z,23.60
2022-08-07T00:18:28.084Z,23.50
2022-08-07T00:21:55.606Z,23.50
2022-08-07T00:23:54.697Z,23.60
2022-08-07T00:26:49.349Z,23.80
2022-08-07T00:29:16.717Z,24.00
2022-08-07T00:31:56.904Z,24.20
2022-08-07T00:34:24.071Z,24.30
2022-08-07T00:36:52.215Z,24.40
2022-08-07T00:39:26.010Z,24.30
2022-08-07T00:42:02.455Z,24.20
2022-08-07T00:44:41.512Z,24.10
2022-08-07T00:47:15.773Z,24.10
2022-08-07T00:50:20.157Z,24.10
2022-08-07T00:52:57.916Z,23.90
2022-08-07T00:55:25.570Z,23.90
2022-08-07T00:58:17.884Z,23.80
2022-08-07T01:00:53.501Z,23.80
2022-08-07T01:03:57.276Z,23.70
2022-08-07T01:06:21.951Z,23.60
2022-08-07T01:08:53.864Z,23.70
2022-08-07T01:12:24.052Z,23.70
2022-08-07T01:14:16.709Z,23.70
2022-08-07T01:16:50.933Z,23.70
2022-08-07T01:19:19.655Z,23.30
2022-08-07T01:21:47.676Z,23.10
2022-08-07T01:24:21.474Z,23.00
2022-08-07T01:26:51.653Z,23.10
2022-08-07T01:29:31.378Z,23.20
2022-08-07T01:32:00.632Z,23.20
2022-08-07T01:34:38.944Z,23.40
2022-08-07T01:37:11.886Z,23.30
2022-08-07T01:39:46.406Z,23.20
2022-08-07T01:42:38.077Z,23.20
2022-08-07T01:45:17.874Z,23.30
2022-08-07T01:48:18.926Z,23.30
2022-08-07T01:50:38.903Z,23.20
2022-08-07T01:53:09.700Z,23.10
2022-08-07T01:55:56.913Z,23.10
2022-08-07T01:58:33.239Z,23.10
2022-08-07T02:01:09.395Z,23.00
2022-08-07T02:03:50.235Z,22.90
2022-08-07T02:06:31.313Z,22.90
2022-08-07T02:09:06.970Z,22.70
2022-08-07T02:12:03.392Z,22.70
2022-08-07T02:14:40.357Z,22.60
2022-08-07T02:17:07.988Z,22.60
2022-08-07T02:20:04.629Z,22.50
2022-08-07T02:22:29.104Z,22.40
2022-08-07T02:25:07.440Z,22.30
2022-08-07T02:27:52.004Z,22.20
2022-08-07T02:30:25.981Z,22.20
2022-08-07T02:33:00.152Z,22.30
2022-08-07T02:36:28.988Z,22.20
2022-08-07T02:38:31.887Z,22.30
2022-08-07T02:41:06.023Z,22.40
2022-08-07T02:43:38.870Z,22.40
2022-08-07T02:46:13.012Z,22.50
2022-08-07T02:48:43.018Z,22.50
2022-08-07T02:51:42.890Z,22.70
2022-08-07T02:54:15.130Z,22.80
2022-08-07T02:56:49.011Z,22.90
2022-08-07T02:59:18.775Z,22.90
2022-08-07T03:01:58.080Z,23.00
2022-08-07T03:04:29.297Z,23.00
2022-08-07T03:06:56.969Z,23.00
2022-08-07T03:09:44.737Z,23.00
2022-08-07T03:12:22.019Z,23.00
2022-08-07T03:15:07.758Z,23.20
2022-08-07T03:17:52.739Z,23.30
2022-08-07T03:20:28.019Z,23.30
2022-08-07T03:22:54.892Z,23.20
2022-08-07T03:25:28.003Z,23.30
2022-08-07T03:28:38.039Z,23.30
2022-08-07T03:31:10.011Z,23.30
2022-08-07T03:33:40.200Z,23.10
2022-08-07T03:36:09.118Z,23.00
2022-08-07T03:38:43.029Z,23.10
2022-08-07T03:41:11.782Z,23.20
2022-08-07T03:43:56.951Z,23.30
2022-08-07T03:46:31.040Z,23.20
2022-08-07T03:49:04.582Z,23.20
2022-08-07T03:51:47.389Z,23.20
2022-08-07T03:54:35.191Z,23.30
2022-08-07T03:57:08.021Z,23.30
2022-08-07T03:59:46.671Z,23.20
2022-08-07T04:02:27.825Z,23.10
2022-08-07T04:05:01.069Z,23.20
2022-08-07T04:07:36.241Z,23.10
2022-08-07T04:10:15.657Z,23.00
2022-08-07T04:12:53.034Z,23.00
2022-08-07T04:15:29.012Z,23.00
2022-08-07T04:18:57.426Z,22.90
2022-08-07T04:20:54.693Z,22.70
2022-08-07T04:23:43.857Z,22.60
2022-08-07T04:26:21.863Z,22.60
2022-08-07T04:28:55.060Z,22.60
2022-08-07T04:31:38.953Z,22.60
2022-08-07T04:34:27.372Z,22.50
2022-08-07T04:37:08.143Z,22.60
2022-08-07T04:39:49.775Z,22.50
2022-08-07T04:42:23.033Z,22.50
2022-08-07T04:45:02.870Z,22.50
2022-08-07T04:48:00.428Z,22.50
2022-08-07T04:50:52.891Z,22.60
2022-08-07T04:54:01.516Z,22.60
2022-08-07T04:58:13.157Z,22.80
2022-08-07T05:00:11.121Z,23.00
2022-08-07T05:03:00.074Z,23.00
2022-08-07T05:05:53.041Z,22.90
2022-08-07T05:08:59.987Z,22.80
2022-08-07T05:11:58.442Z,22.80
2022-08-07T05:14:54.137Z,22.90
2022-08-07T05:17:52.698Z,22.90
2022-08-07T05:20:18.074Z,23.20
2022-08-07T05:22:45.542Z,23.50
2022-08-07T05:25:25.659Z,23.60
2022-08-07T05:28:20.833Z,23.60
2022-08-07T05:30:50.774Z,23.60
2022-08-07T05:33:26.082Z,23.70
2022-08-07T05:35:53.404Z,24.10
2022-08-07T05:38:59.849Z,24.20
2022-08-07T05:41:17.050Z,24.30
2022-08-07T05:44:08.317Z,24.40
2022-08-07T05:46:47.141Z,24.90
2022-08-07T05:49:18.219Z,25.60
2022-08-07T05:51:52.084Z,26.40
2022-08-07T05:54:30.810Z,27.20
2022-08-07T05:56:58.671Z,27.60
2022-08-07T05:59:25.652Z,28.00
2022-08-07T06:02:01.160Z,29.60
2022-08-07T06:04:36.113Z,30.00
2022-08-07T06:07:03.947Z,30.10
2022-08-07T06:10:04.547Z,30.00
2022-08-07T06:12:27.791Z,30.70
2022-08-07T06:15:05.890Z,33.00
2022-08-07T06:17:38.004Z,33.20
2022-08-07T06:20:12.781Z,34.70
2022-08-07T06:23:02.090Z,36.30
2022-08-07T06:25:54.363Z,37.00
2022-08-07T06:28:27.608Z,38.10
2022-08-07T06:31:02.147Z,38.70
2022-08-07T06:33:33.132Z,39.20
2022-08-07T06:36:12.917Z,40.00
2022-08-07T06:38:58.511Z,40.10
2022-08-07T06:42:02.541Z,40.00
2022-08-07T06:44:31.104Z,40.90
2022-08-07T06:47:10.068Z,41.00
2022-08-07T06:49:51.453Z,41.00
2022-08-07T06:52:35.790Z,41.10
2022-08-07T06:55:32.248Z,41.20
2022-08-07T06:58:10.161Z,41.80
2022-08-07T07:00:39.248Z,42.00
2022-08-07T07:03:17.049Z,42.70
2022-08-07T07:06:03.981Z,42.20
2022-08-07T07:08:39.641Z,41.70
2022-08-07T07:12:08.937Z,42.00
2022-08-07T07:14:08.605Z,41.70
2022-08-07T07:16:45.095Z,41.80
2022-08-07T07:19:55.895Z,42.00
2022-08-07T07:22:36.972Z,42.30
2022-08-07T07:26:31.152Z,42.50
2022-08-07T07:28:42.194Z,42.60
2022-08-07T07:31:17.377Z,43.00
2022-08-07T07:33:56.499Z,43.70
2022-08-07T07:36:32.644Z,43.60
2022-08-07T07:39:00.462Z,44.40
2022-08-07T07:41:30.942Z,43.80
2022-08-07T07:44:21.559Z,43.40
2022-08-07T07:46:55.863Z,42.90
2022-08-07T07:50:33.944Z,42.80
2022-08-07T07:52:29.406Z,43.30
2022-08-07T07:54:57.051Z,43.30
2022-08-07T07:57:51.844Z,43.40
2022-08-07T08:00:29.816Z,43.40
2022-08-07T08:04:09.986Z,43.40
2022-08-07T08:06:06.907Z,43.00
2022-08-07T08:08:45.243Z,43.10
2022-08-07T08:11:18.107Z,43.20
2022-08-07T08:14:08.255Z,42.90
2022-08-07T08:16:39.689Z,42.90
2022-08-07T08:20:16.113Z,43.10
2022-08-07T08:22:03.610Z,42.30
2022-08-07T08:24:45.507Z,42.40
2022-08-07T08:27:12.679Z,42.40
2022-08-07T08:29:58.326Z,42.50
2022-08-07T08:32:38.471Z,42.20
2022-08-07T08:35:17.217Z,42.20
2022-08-07T08:38:00.842Z,41.90
2022-08-07T08:40:47.442Z,42.00
2022-08-07T08:43:41.856Z,41.70
2022-08-07T08:46:33.863Z,41.30
2022-08-07T08:49:46.395Z,41.10
2022-08-07T08:52:22.247Z,40.70
2022-08-07T08:55:07.763Z,40.60
2022-08-07T08:57:46.856Z,40.20
2022-08-07T09:00:21.235Z,39.80
2022-08-07T09:03:07.564Z,39.80
2022-08-07T09:05:58.302Z,39.70
2022-08-07T09:08:53.405Z,39.20
2022-08-07T09:11:43.423Z,39.40
2022-08-07T09:14:29.678Z,39.20
2022-08-07T09:17:24.304Z,39.00
2022-08-07T09:20:37.142Z,39.30
2022-08-07T09:24:33.795Z,39.10
2022-08-07T09:26:37.970Z,39.10
2022-08-07T09:30:04.597Z,38.90
2022-08-07T09:32:50.534Z,38.90
2022-08-07T09:36:03.203Z,39.10
2022-08-07T09:38:17.943Z,38.60
2022-08-07T09:41:06.334Z,38.00
2022-08-07T09:44:03.462Z,37.50
2022-08-07T09:47:51.948Z,37.80
2022-08-07T09:50:01.531Z,37.70
2022-08-07T09:52:51.629Z,37.60
2022-08-07T09:55:29.632Z,37.00
2022-08-07T09:58:13.305Z,36.90
2022-08-07T10:00:46.151Z,36.70
2022-08-07T10:04:06.621Z,36.90
2022-08-07T10:06:57.764Z,36.70
2022-08-07T10:10:01.051Z,35.70
2022-08-07T10:13:15.910Z,35.30
2022-08-07T10:16:19.370Z,35.60
2022-08-07T10:19:02.338Z,35.20
2022-08-07T10:22:15.341Z,35.30
2022-08-07T10:25:04.092Z,35.20
2022-08-07T10:27:56.333Z,34.60
2022-08-07T10:30:27.156Z,34.50
2022-08-07T10:33:14.880Z,34.00
2022-08-07T10:36:29.470Z,33.90
2022-08-07T10:39:41.638Z,33.70
2022-08-07T10:42:55.415Z,33.40
2022-08-07T10:45:45.116Z,33.20
2022-08-07T10:49:02.349Z,32.90
2022-08-07T10:52:13.441Z,32.70
2022-08-07T10:55:26.815Z,32.60
2022-08-07T10:58:24.989Z,32.50
2022-08-07T11:01:35.195Z,32.70
2022-08-07T11:04:32.271Z,32.90
2022-08-07T11:07:15.092Z,33.20
2022-08-07T11:10:09.641Z,33.20
2022-08-07T11:12:49.554Z,33.40
2022-08-07T11:15:32.280Z,33.20
2022-08-07T11:18:32.348Z,33.50
2022-08-07T11:21:09.980Z,33.10
2022-08-07T11:24:10.384Z,33.30
2022-08-07T11:26:48.160Z,33.30
2022-08-07T11:29:48.330Z,33.20
2022-08-07T11:32:40.459Z,32.80
2022-08-07T11:35:27.025Z,32.60
2022-08-07T11:38:18.028Z,32.50
2022-08-07T11:41:30.987Z,32.70
2022-08-07T11:44:18.458Z,32.60
2022-08-07T11:47:11.692Z,32.90
2022-08-07T11:50:30.410Z,32.70
2022-08-07T11:53:21.848Z,32.40
2022-08-07T11:56:15.609Z,32.50
2022-08-07T11:59:22.057Z,32.50
2022-08-07T12:02:29.943Z,32.40
2022-08-07T12:05:28.513Z,32.50
2022-08-07T12:08:25.667Z,32.50
2022-08-07T12:11:21.401Z,32.70
2022-08-07T12:13:54.859Z,32.80
2022-08-07T12:16:36.180Z,32.70
2022-08-07T12:19:35.947Z,32.90
2022-08-07T12:22:56.185Z,32.80
2022-08-07T12:26:22.509Z,33.10
2022-08-07T12:29:08.411Z,32.90
2022-08-07T12:32:01.902Z,32.90
2022-08-07T12:34:40.854Z,32.90
2022-08-07T12:37:16.514Z,32.90
2022-08-07T12:39:58.342Z,32.70
2022-08-07T12:42:27.127Z,32.50
2022-08-07T12:44:55.482Z,32.30
2022-08-07T12:47:53.475Z,32.20
2022-08-07T12:50:48.861Z,31.90
2022-08-07T12:54:24.129Z,31.80
2022-08-07T12:56:41.904Z,31.90
2022-08-07T12:59:20.328Z,32.00
2022-08-07T13:02:01.578Z,32.20
2022-08-07T13:05:02.652Z,32.10
2022-08-07T13:08:18.802Z,32.00
2022-08-07T13:11:24.258Z,31.80
2022-08-07T13:14:21.927Z,32.00
2022-08-07T13:17:07.349Z,31.80
2022-08-07T13:20:00.286Z,31.70
2022-08-07T13:22:36.762Z,32.00
2022-08-07T13:25:43.287Z,31.80
2022-08-07T13:28:25.181Z,31.70
2022-08-07T13:31:13.236Z,31.90
2022-08-07T13:34:34.551Z,31.80
2022-08-07T13:37:29.987Z,31.80
2022-08-07T13:40:36.239Z,31.80
2022-08-07T13:43:13.385Z,31.50
2022-08-07T13:46:12.898Z,31.60
2022-08-07T13:48:51.994Z,31.50
2022-08-07T13:52:22.998Z,31.70
2022-08-07T13:54:22.631Z,31.60
2022-08-07T13:57:00.060Z,31.50
2022-08-07T13:59:30.713Z,31.60
2022-08-07T14:02:12.824Z,31.40
2022-08-07T14:04:50.329Z,31.40
2022-08-07T14:07:30.620Z,31.50
2022-08-07T14:10:02.722Z,31.40
2022-08-07T14:12:54.890Z,31.50
2022-08-07T14:15:34.855Z,31.60
2022-08-07T14:18:23.521Z,31.70
2022-08-07T14:22:03.358Z,31.70
2022-08-07T14:24:35.185Z,31.70
2022-08-07T14:28:11.223Z,31.60
2022-08-07T14:30:11.794Z,31.40
2022-08-07T14:32:44.703Z,31.30
2022-08-07T14:35:43.279Z,31.20
2022-08-07T14:38:24.518Z,31.20
2022-08-07T14:41:05.977Z,31.20
2022-08-07T14:43:58.029Z,31.20
2022-08-07T14:46:38.003Z,31.20
2022-08-07T14:49:57.451Z,31.20
2022-08-07T14:52:14.162Z,31.10
2022-08-07T14:54:45.103Z,31.00
2022-08-07T14:57:25.121Z,30.90
2022-08-07T15:03:16.609Z,30.90
2022-08-07T15:06:04.185Z,30.90
2022-08-07T15:11:53.434Z,30.60
2022-08-07T15:14:33.581Z,30.50
2022-08-07T15:17:32.770Z,30.40
2022-08-07T15:20:32.758Z,30.30
2022-08-07T15:23:22.600Z,30.40
2022-08-07T15:26:10.440Z,30.30
2022-08-07T15:34:31.372Z,30.10
2022-08-07T15:37:06.871Z,29.90
2022-08-07T15:39:56.547Z,29.80
2022-08-07T15:45:55.972Z,29.80
2022-08-07T15:48:36.111Z,29.80
2022-08-07T15:54:16.933Z,29.40
2022-08-07T15:56:51.491Z,29.10
2022-08-07T15:59:19.416Z,28.90
2022-08-07T16:02:01.912Z,28.80
2022-08-07T16:04:38.591Z,28.70
2022-08-07T16:08:28.529Z,28.80
2022-08-07T16:10:17.553Z,28.90
2022-08-07T16:13:17.974Z,28.70
2022-08-07T16:16:47.868Z,28.70
2022-08-07T16:19:15.406Z,28.90
2022-08-07T16:22:36.311Z,29.10
2022-08-07T16:30:06.066Z,29.00
2022-08-07T16:31:50.313Z,28.90
2022-08-07T16:34:48.328Z,29.00
2022-08-07T16:38:06.753Z,29.00
2022-08-07T16:40:36.161Z,28.90
2022-08-07T16:44:46.379Z,28.80
2022-08-07T16:47:24.625Z,28.60
2022-08-07T16:50:39.416Z,28.70
2022-08-07T16:54:02.102Z,28.90
2022-08-07T16:56:47.577Z,29.10
2022-08-07T16:59:26.072Z,29.30
2022-08-07T17:02:57.588Z,29.10
2022-08-07T17:06:02.401Z,28.70
2022-08-07T17:09:09.442Z,28.60
2022-08-07T17:12:01.429Z,28.50
2022-08-07T17:15:05.577Z,28.60
2022-08-07T17:17:49.075Z,28.60
2022-08-07T17:20:39.550Z,28.20
2022-08-07T17:23:31.932Z,28.10
2022-08-07T17:26:22.577Z,28.00
2022-08-07T17:30:14.323Z,27.90
2022-08-07T17:32:52.011Z,27.90
2022-08-07T17:35:54.616Z,27.90
2022-08-07T17:38:34.372Z,27.90
2022-08-07T17:42:05.007Z,28.10
2022-08-07T17:44:50.836Z,28.20
2022-08-07T17:47:42.309Z,28.50
2022-08-07T17:50:30.151Z,28.60
2022-08-07T17:53:59.667Z,28.50
2022-08-07T17:56:15.448Z,28.50
2022-08-07T17:59:03.614Z,28.80
2022-08-07T18:01:43.392Z,28.90
2022-08-07T18:04:57.595Z,29.00
2022-08-07T18:07:34.454Z,29.00
2022-08-07T18:10:35.411Z,29.00
2022-08-07T18:13:45.650Z,29.00
2022-08-07T18:16:35.588Z,29.00
2022-08-07T18:21:07.527Z,28.80
2022-08-07T18:23:42.727Z,28.60
2022-08-07T18:26:14.883Z,28.40
2022-08-07T18:30:05.282Z,28.30
2022-08-07T18:32:32.696Z,28.30
2022-08-07T18:35:30.740Z,28.20
2022-08-07T18:40:05.542Z,28.20
2022-08-07T18:42:13.281Z,28.00
2022-08-07T18:45:43.375Z,28.10
2022-08-07T18:48:09.589Z,28.10
2022-08-07T18:51:02.361Z,28.00
2022-08-07T18:53:39.348Z,27.80
2022-08-07T18:56:33.704Z,27.80
2022-08-07T18:59:46.821Z,27.80
2022-08-07T19:02:43.098Z,28.00
2022-08-07T19:06:03.371Z,28.00
2022-08-07T19:08:58.882Z,27.90
2022-08-07T19:12:05.213Z,27.70
2022-08-07T19:16:02.909Z,27.70
2022-08-07T19:18:34.431Z,27.70
2022-08-07T19:21:43.898Z,27.70
2022-08-07T19:24:29.991Z,27.70
2022-08-07T19:31:00.549Z,27.20
2022-08-07T19:33:10.219Z,26.70
2022-08-07T19:35:41.765Z,26.40
2022-08-07T19:38:22.709Z,26.30
2022-08-07T19:40:57.048Z,26.50
2022-08-07T19:43:50.276Z,26.50
2022-08-07T19:46:29.014Z,26.50
2022-08-07T19:49:58.192Z,26.40
2022-08-07T19:52:27.695Z,26.40
2022-08-07T19:55:04.839Z,26.30
2022-08-07T19:58:02.224Z,26.30
2022-08-07T20:00:38.874Z,26.30
2022-08-07T20:03:35.733Z,26.30
2022-08-07T20:06:28.533Z,26.30
2022-08-07T20:10:33.577Z,26.10
2022-08-07T20:12:23.041Z,25.90
2022-08-07T20:14:58.493Z,25.80
2022-08-07T20:17:27.744Z,25.70
2022-08-07T20:20:02.819Z,25.60
2022-08-07T20:22:34.353Z,25.50
2022-08-07T20:25:19.776Z,25.40
2022-08-07T20:27:57.950Z,25.30
2022-08-07T20:30:52.853Z,25.20
2022-08-07T20:33:38.612Z,25.30
2022-08-07T20:36:17.017Z,25.40
2022-08-07T20:39:00.507Z,25.60
2022-08-07T20:41:38.460Z,25.60
2022-08-07T20:44:21.413Z,25.40
2022-08-07T20:47:04.251Z,25.30
2022-08-07T20:50:01.160Z,25.30
2022-08-07T20:52:50.517Z,25.30
2022-08-07T20:55:32.031Z,25.20
2022-08-07T20:58:11.970Z,25.20
2022-08-07T21:00:58.879Z,25.30
2022-08-07T21:03:33.069Z,25.20
2022-08-07T21:06:25.961Z,25.20
2022-08-07T21:09:13.852Z,25.20
2022-08-07T21:11:50.746Z,24.90
2022-08-07T21:14:34.076Z,24.60
2022-08-07T21:18:02.637Z,24.50
2022-08-07T21:20:29.627Z,24.40
2022-08-07T21:23:09.262Z,24.10
2022-08-07T21:26:16.834Z,24.00
2022-08-07T21:29:04.205Z,23.90
2022-08-07T21:32:43.614Z,23.60
2022-08-07T21:34:59.689Z,23.60
2022-08-07T21:37:58.275Z,23.60
2022-08-07T21:41:05.790Z,23.50
2022-08-07T21:44:14.683Z,23.40
2022-08-07T21:47:17.301Z,23.40
2022-08-07T21:50:05.513Z,23.40
2022-08-07T21:53:08.606Z,23.50
2022-08-07T21:55:58.865Z,23.60
2022-08-07T21:58:59.743Z,23.50
2022-08-07T22:02:07.380Z,23.60
2022-08-07T22:04:52.650Z,23.60
2022-08-07T22:07:31.679Z,23.70
2022-08-07T22:10:18.628Z,23.80
2022-08-07T22:13:00.939Z,23.90
2022-08-07T22:16:42.549Z,23.80
2022-08-07T22:18:51.114Z,23.90
2022-08-07T22:22:02.678Z,23.70
2022-08-07T22:24:33.079Z,23.70
2022-08-07T22:28:19.792Z,23.60
2022-08-07T22:30:28.964Z,22.80
2022-08-07T22:33:04.155Z,22.50
2022-08-07T22:36:02.901Z,22.40
2022-08-07T22:38:39.388Z,22.40
2022-08-07T22:41:29.128Z,22.30
2022-08-07T22:44:12.962Z,22.30
2022-08-07T22:47:36.871Z,22.40
2022-08-07T22:50:20.786Z,22.40
2022-08-07T22:54:07.477Z,22.40
2022-08-07T22:56:28.853Z,22.50
2022-08-07T22:59:25.030Z,22.60
2022-08-07T23:02:13.931Z,22.50
2022-08-07T23:04:57.044Z,22.10
2022-08-07T23:08:24.364Z,21.80
2022-08-07T23:11:13.035Z,21.60
2022-08-07T23:14:10.585Z,21.40
2022-08-07T23:16:46.682Z,21.30
2022-08-07T23:19:48.424Z,21.20
2022-08-07T23:22:50.133Z,21.00
2022-08-07T23:25:57.942Z,21.00
2022-08-07T23:28:54.506Z,20.90
2022-08-07T23:34:20.635Z,20.90
2022-08-07T23:34:44.985Z,20.90
2022-08-07T23:38:01.384Z,20.90
2022-08-07T23:40:36.277Z,20.90
2022-08-07T23:43:16.885Z,20.90
2022-08-07T23:46:03.230Z,21.20
2022-08-07T23:49:15.436Z,21.40
2022-08-07T23:53:01.447Z,21.60
2022-08-07T23:54:52.790Z,21.50
2022-08-07T23:57:58.923Z,21.40
